Nearby METAR Reports

 

KTOP - Billard Municipal Airport, Topeka, Kansas, USA
Updated: 10/19/2018 2:53pm
Partly cloudy
Partly cloudy
 Wind from WSW
Wind: WSW 14 mph , 22 km/h, Gust: 21 mph , 33 km/h
Temperature: 66°F , 19°C
Dew Point: 52°F , 11°C
Humidity: 60%
Barometer: 1016.9 hPa
Clouds: Partly cloudy
Visibility: 10 miles , 16 km
Cloud details: Partly cloudy 3100 ft
2018/10/19 19:53 KTOP 191953Z 25012G18KT 10SM SCT031 19/11 A3003 RMK AO2 SLP167 T01940106
KFOE - Forbes Field Airport, Topeka, Kansas, USA
Updated: 10/19/2018 3:05pm
Partly cloudy
Partly cloudy
 Wind from SW
Wind: SW 13 mph , 20 km/h
Temperature: 66°F , 19°C
Dew Point: 52°F , 11°C
Humidity: 60%
Barometer: 1017.3 hPa
Clouds: Partly cloudy
Visibility: 10 miles , 16 km
Cloud details: Partly cloudy 2800 ft
2018/10/19 20:05 KFOE 192005Z 23011KT 10SM SCT028 19/11 A3004 RMK AO2 T01890111